Aviation Digital Data Service (ADDS)

Output produced by METARs form (0207 UTC 22 April 2019)
found at http://www.aviationweather.gov/metar/data/
 
Forecast for: DNAK (AKURE AIRPORT , NG)
Text: TAF DNAK 212150Z 2200/2306 VRB02KT 9999 FEW010
Forecast period: 0000 to 0900 UTC 22 April 2019
Forecast type: FROM: standard forecast or significant change
Winds: variable direction winds at 2 MPH (2 knots; 1.0 m/s)
Visibility: 6 or more miles 10+ km)
Ceiling: at least 12,000 feet AGL
Clouds: few clouds at 1000 feet AGL
Weather: no significant weather forecast for this period
Text: BECMG 2209/2211 21010KT BKN014
Forecast period: 0900 UTC 22 April 2019 to 0600 UTC 23 April 2019
Forecast type: BECOMING: Conditions expected to become as follows by 1100 UTC 22 April 2019
Winds: from the SSW (210 degrees) at 12 MPH (10 knots; 5.1 m/s)
Visibility: 6 or more miles 10+ km)
Ceiling: 1400 feet AGL
Clouds: broken clouds at 1400 feet AGL
Weather: no significant weather forecast for this period